createdAt,value
2018-06-08T00:00:47.777Z,13.45
2018-06-08T00:03:16.104Z,13.03
2018-06-08T00:05:44.500Z,13.62
2018-06-08T00:08:12.982Z,13.95
2018-06-08T00:10:41.338Z,14.00
2018-06-08T00:13:09.704Z,14.10
2018-06-08T00:15:38.020Z,15.05
2018-06-08T00:18:06.337Z,14.18
2018-06-08T00:20:34.739Z,14.23
2018-06-08T00:23:03.076Z,14.13
2018-06-08T00:25:31.509Z,16.15
2018-06-08T00:27:59.882Z,16.37
2018-06-08T00:30:28.260Z,16.15
2018-06-08T00:32:56.649Z,16.30
2018-06-08T00:35:25.092Z,16.20
2018-06-08T00:37:53.447Z,16.65
2018-06-08T00:40:21.824Z,15.63
2018-06-08T00:42:50.146Z,14.83
2018-06-08T00:45:18.482Z,15.08
2018-06-08T00:47:46.868Z,15.40
2018-06-08T00:50:15.217Z,15.03
2018-06-08T00:52:43.528Z,16.35
2018-06-08T00:55:12.042Z,17.32
2018-06-08T00:57:40.466Z,15.10
2018-06-08T01:00:08.928Z,16.10
2018-06-08T01:02:37.386Z,14.50
2018-06-08T01:05:06.070Z,18.20
2018-06-08T01:07:34.458Z,17.82
2018-06-08T01:10:02.897Z,17.90
2018-06-08T01:12:31.327Z,16.82
2018-06-08T01:14:59.688Z,19.10
2018-06-08T01:17:28.065Z,20.35
2018-06-08T01:19:56.448Z,21.35
2018-06-08T01:22:24.843Z,20.80
2018-06-08T01:24:53.220Z,22.07
2018-06-08T01:27:21.638Z,22.55
2018-06-08T01:29:50.011Z,21.30
2018-06-08T01:32:18.398Z,22.77
2018-06-08T01:34:46.774Z,24.52
2018-06-08T01:37:15.164Z,25.17
2018-06-08T01:39:43.580Z,25.20
2018-06-08T01:42:12.032Z,24.87
2018-06-08T01:44:40.500Z,21.20
2018-06-08T01:47:08.827Z,21.73
2018-06-08T01:49:37.143Z,27.52
2018-06-08T01:52:05.541Z,27.10
2018-06-08T01:54:33.978Z,27.15
2018-06-08T01:57:02.355Z,28.75
2018-06-08T01:59:30.885Z,27.25
2018-06-08T02:01:59.241Z,28.50
2018-06-08T02:04:27.638Z,28.98
2018-06-08T02:06:55.997Z,28.77
2018-06-08T02:09:24.321Z,30.02
2018-06-08T02:11:52.706Z,29.50
2018-06-08T02:14:21.072Z,28.92
2018-06-08T02:16:49.447Z,25.72
2018-06-08T02:19:17.899Z,25.27
2018-06-08T02:21:46.288Z,25.55
2018-06-08T02:24:14.624Z,28.50
2018-06-08T02:26:42.985Z,26.97
2018-06-08T02:29:11.328Z,28.25
2018-06-08T02:31:39.692Z,28.47
2018-06-08T02:34:07.973Z,29.65
2018-06-08T02:36:36.345Z,27.77
2018-06-08T02:39:07.244Z,29.72
2018-06-08T02:41:35.938Z,27.40
2018-06-08T02:44:04.317Z,28.77
2018-06-08T02:46:32.845Z,29.23
2018-06-08T02:49:01.196Z,31.15
2018-06-08T02:51:29.555Z,29.75
2018-06-08T02:53:57.911Z,30.72
2018-06-08T02:56:26.314Z,32.20
2018-06-08T02:58:58.727Z,31.20
2018-06-08T03:01:27.118Z,31.68
2018-06-08T03:03:55.526Z,30.75
2018-06-08T03:06:23.902Z,31.25
2018-06-08T03:08:52.234Z,32.35
2018-06-08T03:11:20.583Z,32.88
2018-06-08T03:13:48.949Z,31.75
2018-06-08T03:16:17.414Z,29.52
2018-06-08T03:18:45.800Z,32.13
2018-06-08T03:21:14.104Z,33.23
2018-06-08T03:23:42.471Z,32.58
2018-06-08T03:26:10.812Z,33.25
2018-06-08T03:28:39.167Z,31.33
2018-06-08T03:31:07.544Z,31.65
2018-06-08T03:33:35.879Z,30.90
2018-06-08T03:36:04.264Z,31.60
2018-06-08T03:38:32.568Z,30.55
2018-06-08T03:41:00.903Z,32.67
2018-06-08T03:43:29.221Z,32.75
2018-06-08T03:45:57.559Z,30.12
2018-06-08T03:48:25.958Z,31.87
2018-06-08T03:50:54.254Z,32.28
2018-06-08T03:53:22.579Z,32.25
2018-06-08T03:55:50.926Z,32.55
2018-06-08T03:58:19.316Z,30.60
2018-06-08T04:00:47.753Z,29.72
2018-06-08T04:03:16.082Z,30.50
2018-06-08T04:05:44.496Z,31.60
2018-06-08T04:08:12.932Z,31.75
2018-06-08T04:10:41.538Z,31.77
2018-06-08T04:13:09.905Z,30.75
2018-06-08T04:15:38.261Z,30.43
2018-06-08T04:18:07.191Z,33.25
2018-06-08T04:20:35.605Z,32.20
2018-06-08T04:23:03.971Z,33.48
2018-06-08T04:25:32.270Z,30.82
2018-06-08T04:28:00.604Z,32.93
2018-06-08T04:30:28.898Z,32.20
2018-06-08T04:32:57.251Z,31.10
2018-06-08T04:35:25.588Z,34.20
2018-06-08T04:37:53.906Z,32.95
2018-06-08T04:40:22.241Z,34.83
2018-06-08T04:42:50.595Z,33.75
2018-06-08T04:45:18.908Z,34.58
2018-06-08T04:47:47.320Z,33.88
2018-06-08T04:50:15.680Z,33.63
2018-06-08T04:52:44.094Z,33.80
2018-06-08T04:55:12.651Z,34.80
2018-06-08T04:57:41.068Z,32.08
2018-06-08T05:00:09.405Z,30.55
2018-06-08T05:02:37.742Z,30.72
2018-06-08T05:05:06.080Z,30.95
2018-06-08T05:07:34.505Z,33.02
2018-06-08T05:10:03.309Z,30.95
2018-06-08T05:12:31.708Z,32.15
2018-06-08T05:15:00.360Z,29.70
2018-06-08T05:17:28.733Z,29.80
2018-06-08T05:19:57.661Z,31.85
2018-06-08T05:22:26.108Z,32.42
2018-06-08T05:24:54.453Z,32.78
2018-06-08T05:27:22.812Z,30.17
2018-06-08T05:29:51.280Z,32.98
2018-06-08T05:32:19.663Z,31.52
2018-06-08T05:34:49.033Z,31.05
2018-06-08T05:37:20.701Z,29.20
2018-06-08T05:39:49.083Z,31.07
2018-06-08T05:42:17.502Z,29.95
2018-06-08T05:44:46.064Z,30.10
2018-06-08T05:47:14.494Z,30.52
2018-06-08T05:49:42.877Z,29.72
2018-06-08T05:52:11.245Z,30.23
2018-06-08T05:54:39.332Z,30.02
2018-06-08T05:57:07.802Z,29.50
2018-06-08T05:59:36.227Z,27.85
2018-06-08T06:02:04.644Z,30.35
2018-06-08T06:04:33.032Z,29.02
2018-06-08T06:07:01.355Z,28.75
2018-06-08T06:09:29.801Z,28.85
2018-06-08T06:11:58.282Z,28.62
2018-06-08T06:14:26.652Z,30.80
2018-06-08T06:16:55.119Z,31.50
2018-06-08T06:19:23.501Z,30.05
2018-06-08T06:21:51.831Z,30.85
2018-06-08T06:24:20.215Z,29.75
2018-06-08T06:26:48.634Z,29.92
2018-06-08T06:29:17.037Z,32.30
2018-06-08T06:31:45.498Z,31.02
2018-06-08T06:34:13.839Z,32.88
2018-06-08T06:36:42.198Z,32.28
2018-06-08T06:39:10.627Z,31.68
2018-06-08T06:41:38.962Z,30.50
2018-06-08T06:44:07.332Z,32.28
2018-06-08T06:46:36.516Z,29.02
2018-06-08T06:49:05.073Z,31.10
2018-06-08T06:51:33.566Z,30.35
2018-06-08T06:54:01.975Z,29.10
2018-06-08T06:56:30.449Z,31.93
2018-06-08T06:58:58.761Z,31.73
2018-06-08T07:01:27.220Z,33.13
2018-06-08T07:03:55.583Z,32.67
2018-06-08T07:06:23.957Z,31.55
2018-06-08T07:08:52.317Z,33.02
2018-06-08T07:11:20.718Z,31.07
2018-06-08T07:13:49.064Z,32.30
2018-06-08T07:16:17.428Z,32.85
2018-06-08T07:18:45.874Z,32.38
2018-06-08T07:21:14.158Z,33.95
2018-06-08T07:23:42.510Z,33.38
2018-06-08T07:26:11.007Z,32.83
2018-06-08T07:28:39.449Z,33.23
2018-06-08T07:31:08.206Z,29.07
2018-06-08T07:33:36.639Z,28.55
2018-06-08T07:36:04.988Z,29.40
2018-06-08T07:38:33.413Z,31.40
2018-06-08T07:41:01.964Z,33.23
2018-06-08T07:43:30.410Z,33.23
2018-06-08T07:45:58.756Z,30.52
2018-06-08T07:48:27.179Z,29.90
2018-06-08T07:50:55.505Z,30.32
2018-06-08T07:53:24.191Z,29.15
2018-06-08T07:55:52.630Z,30.70
2018-06-08T07:58:21.108Z,31.70
2018-06-08T08:00:49.439Z,29.87
2018-06-08T08:03:17.841Z,31.68
2018-06-08T08:05:46.390Z,30.88
2018-06-08T08:08:15.166Z,29.80
2018-06-08T08:10:43.708Z,30.37
2018-06-08T08:13:12.084Z,32.58
2018-06-08T08:15:43.520Z,31.33
2018-06-08T08:18:11.987Z,30.32
2018-06-08T08:20:40.449Z,32.50
2018-06-08T08:23:08.820Z,29.20
2018-06-08T08:25:37.233Z,28.87
2018-06-08T08:28:05.618Z,28.77
2018-06-08T08:30:33.990Z,30.88
2018-06-08T08:33:02.320Z,31.20
2018-06-08T08:35:30.851Z,33.02
2018-06-08T08:37:59.283Z,32.50
2018-06-08T08:40:27.715Z,32.40
2018-06-08T08:42:56.109Z,33.75
2018-06-08T08:45:25.307Z,34.67
2018-06-08T08:47:53.799Z,34.73
2018-06-08T08:50:22.272Z,37.80
2018-06-08T08:52:50.951Z,39.53
2018-06-08T08:55:19.348Z,39.98
2018-06-08T08:57:47.687Z,40.48
2018-06-08T09:00:16.031Z,37.15
2018-06-08T09:02:44.599Z,40.85
2018-06-08T09:05:12.951Z,39.65
2018-06-08T09:07:41.257Z,37.83
2018-06-08T09:10:09.752Z,38.50
2018-06-08T09:12:38.484Z,38.63
2018-06-08T09:15:07.107Z,38.80
2018-06-08T09:17:35.473Z,38.08
2018-06-08T09:20:03.876Z,36.73
2018-06-08T09:22:32.393Z,38.50
2018-06-08T09:25:00.780Z,37.35
2018-06-08T09:27:29.166Z,36.10
2018-06-08T09:29:57.538Z,34.90
2018-06-08T09:32:25.892Z,34.80
2018-06-08T09:34:54.381Z,35.05
2018-06-08T09:37:22.784Z,33.30
2018-06-08T09:39:51.135Z,34.55
2018-06-08T09:42:20.444Z,34.20
2018-06-08T09:44:48.812Z,34.53
2018-06-08T09:47:17.190Z,33.05
2018-06-08T09:49:45.666Z,33.67
2018-06-08T09:52:13.962Z,31.10
2018-06-08T09:54:42.353Z,32.85
2018-06-08T09:57:10.791Z,34.48
2018-06-08T09:59:39.146Z,33.90
2018-06-08T10:02:07.549Z,34.60
2018-06-08T10:04:36.145Z,33.48
2018-06-08T10:07:04.535Z,34.40
2018-06-08T10:09:32.962Z,34.53
2018-06-08T10:12:01.492Z,34.67
2018-06-08T10:14:29.877Z,35.63
2018-06-08T10:16:58.308Z,34.08
2018-06-08T10:19:26.699Z,36.50
2018-06-08T10:21:55.076Z,32.20
2018-06-08T10:24:23.576Z,37.28
2018-06-08T10:26:51.965Z,35.28
2018-06-08T10:29:21.202Z,34.00
2018-06-08T10:31:49.513Z,37.23
2018-06-08T10:34:24.610Z,33.00
2018-06-08T10:36:52.690Z,35.50
2018-06-08T10:39:21.125Z,35.85
2018-06-08T10:41:49.488Z,38.28
2018-06-08T10:44:17.808Z,38.08
2018-06-08T10:46:46.175Z,36.93
2018-06-08T10:49:14.561Z,37.00
2018-06-08T10:51:42.923Z,37.90
2018-06-08T10:54:11.501Z,38.88
2018-06-08T10:56:40.320Z,39.98
2018-06-08T10:59:08.730Z,47.05
2018-06-08T11:01:37.130Z,65.17
2018-06-08T11:04:05.539Z,84.45
2018-06-08T11:06:33.878Z,63.52
2018-06-08T11:09:02.277Z,80.97
2018-06-08T11:11:30.700Z,54.53
2018-06-08T11:13:59.159Z,48.28
2018-06-08T11:16:27.582Z,52.75
2018-06-08T11:18:55.993Z,45.90
2018-06-08T11:21:24.884Z,48.50
2018-06-08T11:23:53.314Z,48.52
2018-06-08T11:26:21.616Z,49.50
2018-06-08T11:28:50.007Z,46.15
2018-06-08T11:31:18.442Z,48.08
2018-06-08T11:33:46.804Z,45.35
2018-06-08T11:36:15.203Z,45.43
2018-06-08T11:38:43.600Z,47.33
2018-06-08T11:41:11.944Z,46.58
2018-06-08T11:43:40.315Z,50.38
2018-06-08T11:46:08.649Z,50.50
2018-06-08T11:48:37.176Z,53.60
2018-06-08T11:51:05.557Z,52.58
2018-06-08T11:53:33.946Z,53.30
2018-06-08T11:56:02.297Z,54.05
2018-06-08T11:58:30.616Z,56.23
2018-06-08T12:00:58.937Z,54.10
2018-06-08T12:03:27.954Z,55.15
2018-06-08T12:05:56.366Z,59.33
2018-06-08T12:08:24.672Z,61.83
2018-06-08T12:10:53.070Z,62.78
2018-06-08T12:13:21.496Z,59.75
2018-06-08T12:15:49.802Z,54.70
2018-06-08T12:18:18.193Z,52.67
2018-06-08T12:20:46.599Z,59.50
2018-06-08T12:23:14.950Z,60.30
2018-06-08T12:25:43.277Z,60.48
2018-06-08T12:28:11.362Z,58.05
2018-06-08T12:30:39.437Z,58.92
2018-06-08T12:33:07.746Z,52.23
2018-06-08T12:35:36.075Z,51.20
2018-06-08T12:38:04.431Z,52.67
2018-06-08T12:40:33.769Z,53.28
2018-06-08T12:43:02.214Z,52.17
2018-06-08T12:45:30.985Z,53.15
2018-06-08T12:47:59.570Z,52.60
2018-06-08T12:50:28.101Z,50.73
2018-06-08T12:52:56.471Z,49.77
2018-06-08T12:55:24.939Z,50.43
2018-06-08T12:57:53.316Z,48.48
2018-06-08T13:00:21.688Z,50.75
2018-06-08T13:02:50.136Z,49.27
2018-06-08T13:05:18.619Z,47.65
2018-06-08T13:07:46.928Z,46.85
2018-06-08T13:10:15.350Z,45.48
2018-06-08T13:12:50.106Z,45.65
2018-06-08T13:15:18.433Z,43.30
2018-06-08T13:17:46.941Z,45.12
2018-06-08T13:20:15.239Z,46.58
2018-06-08T13:22:43.590Z,49.18
2018-06-08T13:25:11.965Z,45.85
2018-06-08T13:27:40.408Z,45.67
2018-06-08T13:30:08.829Z,42.67
2018-06-08T13:32:37.205Z,46.90
2018-06-08T13:35:05.696Z,42.43
2018-06-08T13:37:34.029Z,39.30
2018-06-08T13:40:02.380Z,38.02
2018-06-08T13:42:30.739Z,36.53
2018-06-08T13:44:59.107Z,34.33
2018-06-08T13:47:27.479Z,38.53
2018-06-08T13:49:55.858Z,37.05
2018-06-08T13:52:24.276Z,36.00
2018-06-08T13:54:52.605Z,35.40
2018-06-08T13:57:21.012Z,35.35
2018-06-08T13:59:49.332Z,35.48
2018-06-08T14:02:17.691Z,32.80
2018-06-08T14:04:46.042Z,34.60
2018-06-08T14:07:14.452Z,34.10
2018-06-08T14:09:43.063Z,33.73
2018-06-08T14:12:11.510Z,35.28
2018-06-08T14:14:39.900Z,35.05
2018-06-08T14:17:08.278Z,34.92
2018-06-08T14:19:36.633Z,34.05
2018-06-08T14:22:05.013Z,33.63
2018-06-08T14:24:33.543Z,32.63
2018-06-08T14:27:01.889Z,32.10
2018-06-08T14:29:30.348Z,31.33
2018-06-08T14:31:58.772Z,31.05
2018-06-08T14:34:27.211Z,30.97
2018-06-08T14:36:55.572Z,30.68
2018-06-08T14:39:23.866Z,30.30
2018-06-08T14:41:52.373Z,28.30
2018-06-08T14:44:20.823Z,29.75
2018-06-08T14:46:49.309Z,29.00
2018-06-08T14:49:17.652Z,29.35
2018-06-08T14:51:46.045Z,27.70
2018-06-08T14:54:14.429Z,29.12
2018-06-08T14:56:42.759Z,28.65
2018-06-08T14:59:11.101Z,27.75
2018-06-08T15:01:39.511Z,29.42
2018-06-08T15:04:07.846Z,28.23
2018-06-08T15:06:36.251Z,26.48
2018-06-08T15:09:06.140Z,28.73
2018-06-08T15:11:34.472Z,26.50
2018-06-08T15:14:02.825Z,25.95
2018-06-08T15:16:31.251Z,26.70
2018-06-08T15:18:59.633Z,26.27
2018-06-08T15:21:28.031Z,26.25
2018-06-08T15:23:56.442Z,27.65
2018-06-08T15:26:24.821Z,27.37
2018-06-08T15:28:53.182Z,26.10
2018-06-08T15:31:21.561Z,26.82
2018-06-08T15:33:50.010Z,28.45
2018-06-08T15:36:18.391Z,26.82
2018-06-08T15:38:46.742Z,25.00
2018-06-08T15:41:15.084Z,25.85
2018-06-08T15:43:44.160Z,26.20
2018-06-08T15:46:12.620Z,26.45
2018-06-08T15:48:41.038Z,24.23
2018-06-08T15:51:09.348Z,25.92
2018-06-08T15:53:37.816Z,26.68
2018-06-08T15:56:06.429Z,25.35
2018-06-08T15:58:38.036Z,24.45
2018-06-08T16:01:06.592Z,23.55
2018-06-08T16:03:35.295Z,22.58
2018-06-08T16:06:05.742Z,23.47
2018-06-08T16:08:36.564Z,22.98
2018-06-08T16:11:04.947Z,21.48
2018-06-08T16:13:33.233Z,22.50
2018-06-08T16:16:01.646Z,22.50
2018-06-08T16:18:30.163Z,22.35
2018-06-08T16:20:58.590Z,23.12
2018-06-08T16:23:26.991Z,22.73
2018-06-08T16:25:55.399Z,22.37
2018-06-08T16:28:23.871Z,22.13
2018-06-08T16:30:52.272Z,20.97
2018-06-08T16:33:20.708Z,21.48
2018-06-08T16:35:49.659Z,20.52
2018-06-08T16:38:18.008Z,22.17
2018-06-08T16:40:46.568Z,21.27
2018-06-08T16:43:15.205Z,20.82
2018-06-08T16:45:43.629Z,21.62
2018-06-08T16:48:11.982Z,21.42
2018-06-08T16:50:40.481Z,21.17
2018-06-08T16:53:08.948Z,20.85
2018-06-08T16:55:37.979Z,20.75
2018-06-08T16:58:06.371Z,21.37
2018-06-08T17:00:34.773Z,21.02
2018-06-08T17:03:03.124Z,20.05
2018-06-08T17:05:31.499Z,21.55
2018-06-08T17:07:59.839Z,19.20
2018-06-08T17:10:28.182Z,20.30
2018-06-08T17:12:56.549Z,19.00
2018-06-08T17:15:24.859Z,20.32
2018-06-08T17:17:53.984Z,19.92
2018-06-08T17:20:22.317Z,19.90
2018-06-08T17:22:56.469Z,20.08
2018-06-08T17:25:24.869Z,19.67
2018-06-08T17:27:53.412Z,20.12
2018-06-08T17:30:21.849Z,21.12
2018-06-08T17:32:50.259Z,20.37
2018-06-08T17:35:18.629Z,21.17
2018-06-08T17:37:47.041Z,19.90
2018-06-08T17:40:15.709Z,21.27
2018-06-08T17:42:44.134Z,20.15
2018-06-08T17:45:12.508Z,19.37
2018-06-08T17:47:40.866Z,21.73
2018-06-08T17:50:08.978Z,19.57
2018-06-08T17:52:37.377Z,19.60
2018-06-08T17:55:05.778Z,20.95
2018-06-08T17:57:33.951Z,21.27
2018-06-08T18:00:02.000Z,20.37
2018-06-08T18:02:30.564Z,21.17
2018-06-08T18:04:58.900Z,21.60
2018-06-08T18:07:27.211Z,20.88
2018-06-08T18:09:55.611Z,20.32
2018-06-08T18:12:24.038Z,21.25
2018-06-08T18:14:52.413Z,21.17
2018-06-08T18:17:20.840Z,22.27
2018-06-08T18:19:49.343Z,21.48
2018-06-08T18:22:17.747Z,23.18
2018-06-08T18:24:46.098Z,23.40
2018-06-08T18:27:14.539Z,24.67
2018-06-08T18:29:42.925Z,24.35
2018-06-08T18:32:11.271Z,23.75
2018-06-08T18:34:39.556Z,23.80
2018-06-08T18:37:07.915Z,24.35
2018-06-08T18:39:36.324Z,25.60
2018-06-08T18:42:04.689Z,25.00
2018-06-08T18:44:33.096Z,26.45
2018-06-08T18:47:01.498Z,26.80
2018-06-08T18:49:29.912Z,26.12
2018-06-08T18:51:58.302Z,26.37
2018-06-08T18:54:26.856Z,28.02
2018-06-08T18:56:55.211Z,28.10
2018-06-08T18:59:23.577Z,27.02
2018-06-08T19:01:51.934Z,27.60
2018-06-08T19:04:20.297Z,26.48
2018-06-08T19:06:48.741Z,27.80
2018-06-08T19:09:17.148Z,28.15
2018-06-08T19:11:45.492Z,28.67
2018-06-08T19:14:13.896Z,28.30
2018-06-08T19:16:42.240Z,29.72
2018-06-08T19:19:10.663Z,28.62
2018-06-08T19:21:39.182Z,29.30
2018-06-08T19:24:07.515Z,29.10
2018-06-08T19:26:35.903Z,29.15
2018-06-08T19:29:04.339Z,28.32
2018-06-08T19:31:32.783Z,29.25
2018-06-08T19:34:01.141Z,29.82
2018-06-08T19:36:29.562Z,30.97
2018-06-08T19:38:57.956Z,30.80
2018-06-08T19:41:26.306Z,31.40
2018-06-08T19:43:54.750Z,32.15
2018-06-08T19:46:23.112Z,30.43
2018-06-08T19:48:51.420Z,31.25
2018-06-08T19:51:19.735Z,31.27
2018-06-08T19:53:48.128Z,31.87
2018-06-08T19:56:16.240Z,32.50
2018-06-08T19:58:44.625Z,30.10
2018-06-08T20:01:13.080Z,32.83
2018-06-08T20:03:41.492Z,34.55
2018-06-08T20:06:09.912Z,36.42
2018-06-08T20:08:38.335Z,32.55
2018-06-08T20:11:06.645Z,36.90
2018-06-08T20:13:35.081Z,37.25
2018-06-08T20:16:03.500Z,37.65
2018-06-08T20:18:31.898Z,38.88
2018-06-08T20:21:00.232Z,36.33
2018-06-08T20:23:28.649Z,37.40
2018-06-08T20:25:56.997Z,38.92
2018-06-08T20:28:25.373Z,40.90
2018-06-08T20:30:53.761Z,39.58
2018-06-08T20:33:22.131Z,42.35
2018-06-08T20:35:50.521Z,40.60
2018-06-08T20:38:18.896Z,37.85
2018-06-08T20:40:47.295Z,40.10
2018-06-08T20:43:15.714Z,41.53
2018-06-08T20:45:44.055Z,41.15
2018-06-08T20:48:12.432Z,38.40
2018-06-08T20:50:40.767Z,37.98
2018-06-08T20:53:09.176Z,38.00
2018-06-08T20:55:37.501Z,36.23
2018-06-08T20:58:06.032Z,36.80
2018-06-08T21:00:34.415Z,36.83
2018-06-08T21:03:02.773Z,35.33
2018-06-08T21:05:31.101Z,33.08
2018-06-08T21:08:00.143Z,31.90
2018-06-08T21:10:28.569Z,30.30
2018-06-08T21:12:57.047Z,28.30
2018-06-08T21:15:25.434Z,29.50
2018-06-08T21:17:53.782Z,28.87
2018-06-08T21:20:22.158Z,29.92
2018-06-08T21:22:50.540Z,28.07
2018-06-08T21:25:18.942Z,28.65
2018-06-08T21:27:47.295Z,28.32
2018-06-08T21:30:15.618Z,27.10
2018-06-08T21:32:44.046Z,27.02
2018-06-08T21:35:12.482Z,25.65
2018-06-08T21:37:40.913Z,24.00
2018-06-08T21:40:09.345Z,22.13
2018-06-08T21:42:37.722Z,22.55
2018-06-08T21:45:06.062Z,21.90
2018-06-08T21:47:34.456Z,20.85
2018-06-08T21:50:02.831Z,20.68
2018-06-08T21:52:31.291Z,21.07
2018-06-08T21:54:59.703Z,20.72
2018-06-08T21:57:28.081Z,23.80
2018-06-08T21:59:57.442Z,23.47
2018-06-08T22:02:26.119Z,22.07
2018-06-08T22:04:54.501Z,23.87
2018-06-08T22:07:22.809Z,23.62
2018-06-08T22:09:51.110Z,23.32
2018-06-08T22:12:19.427Z,26.00
2018-06-08T22:14:47.811Z,25.12
2018-06-08T22:17:16.163Z,26.55
2018-06-08T22:19:44.627Z,25.17
2018-06-08T22:22:12.989Z,27.70
2018-06-08T22:24:42.336Z,24.90
2018-06-08T22:27:10.699Z,25.85
2018-06-08T22:29:39.106Z,26.10
2018-06-08T22:32:07.469Z,26.80
2018-06-08T22:34:35.811Z,25.15
2018-06-08T22:37:04.243Z,25.43
2018-06-08T22:39:32.638Z,25.10
2018-06-08T22:42:01.016Z,24.95
2018-06-08T22:44:29.350Z,24.37
2018-06-08T22:46:57.734Z,23.15
2018-06-08T22:49:26.051Z,23.00
2018-06-08T22:51:54.636Z,24.77
2018-06-08T22:54:22.977Z,25.62
2018-06-08T22:56:51.311Z,25.35
2018-06-08T22:59:19.652Z,26.05
2018-06-08T23:01:48.021Z,24.40
2018-06-08T23:04:16.655Z,23.18
2018-06-08T23:06:44.723Z,22.15
2018-06-08T23:09:13.024Z,22.93
2018-06-08T23:11:41.494Z,22.07
2018-06-08T23:14:09.862Z,22.13
2018-06-08T23:16:38.247Z,21.25
2018-06-08T23:19:06.403Z,19.48
2018-06-08T23:21:34.770Z,20.08
2018-06-08T23:24:03.250Z,19.73
2018-06-08T23:26:31.628Z,18.75
2018-06-08T23:29:00.057Z,19.05
2018-06-08T23:31:28.437Z,18.52
2018-06-08T23:33:56.752Z,17.15
2018-06-08T23:36:25.065Z,15.80
2018-06-08T23:38:53.370Z,14.80
2018-06-08T23:41:21.720Z,15.35
2018-06-08T23:43:50.194Z,13.83
2018-06-08T23:46:18.568Z,14.03
2018-06-08T23:48:47.413Z,14.78
2018-06-08T23:51:15.793Z,14.40
2018-06-08T23:53:44.221Z,12.88
2018-06-08T23:56:12.765Z,12.00
2018-06-08T23:58:41.132Z,11.90
